sensor_id;sensor_type;location;lat;lon;timestamp;pressure;altitude;pressure_sealevel;temperature;humidity
32251;BME280;41295;48.518;9.206;2023-04-24T00:00:16;96222.38;;;13.99;56.17
32251;BME280;41295;48.518;9.206;2023-04-24T00:02:19;96220.94;;;13.82;56.63
32251;BME280;41295;48.518;9.206;2023-04-24T00:04:22;96220.41;;;13.77;57.12
32251;BME280;41295;48.518;9.206;2023-04-24T00:06:27;96217.16;;;13.86;57.03
32251;BME280;41295;48.518;9.206;2023-04-24T00:08:34;96228.69;;;13.83;57.33
32251;BME280;41295;48.518;9.206;2023-04-24T00:10:38;96229.00;;;13.79;57.46
32251;BME280;41295;48.518;9.206;2023-04-24T00:12:41;96230.03;;;13.76;57.87
32251;BME280;41295;48.518;9.206;2023-04-24T00:14:43;96243.38;;;13.86;57.54
32251;BME280;41295;48.518;9.206;2023-04-24T00:16:46;96241.25;;;13.78;57.59
32251;BME280;41295;48.518;9.206;2023-04-24T00:18:48;96241.56;;;13.74;57.90
32251;BME280;41295;48.518;9.206;2023-04-24T00:20:53;96242.31;;;13.76;58.27
32251;BME280;41295;48.518;9.206;2023-04-24T00:22:56;96240.75;;;13.86;57.95
32251;BME280;41295;48.518;9.206;2023-04-24T00:24:59;96226.69;;;13.74;58.29
32251;BME280;41295;48.518;9.206;2023-04-24T00:27:03;96222.72;;;13.68;58.26
32251;BME280;41295;48.518;9.206;2023-04-24T00:29:05;96227.84;;;13.70;58.56
32251;BME280;41295;48.518;9.206;2023-04-24T00:31:08;96229.31;;;13.61;58.59
32251;BME280;41295;48.518;9.206;2023-04-24T00:33:10;96226.34;;;13.53;58.81
32251;BME280;41295;48.518;9.206;2023-04-24T00:35:13;96225.03;;;13.45;59.25
32251;BME280;41295;48.518;9.206;2023-04-24T00:37:16;96217.59;;;13.39;59.49
32251;BME280;41295;48.518;9.206;2023-04-24T00:39:18;96223.97;;;13.35;60.01
32251;BME280;41295;48.518;9.206;2023-04-24T00:41:21;96228.28;;;13.36;60.02
32251;BME280;41295;48.518;9.206;2023-04-24T00:43:25;96235.50;;;13.32;60.03
32251;BME280;41295;48.518;9.206;2023-04-24T00:45:28;96230.16;;;13.34;60.53
32251;BME280;41295;48.518;9.206;2023-04-24T00:47:32;96228.28;;;13.36;60.80
32251;BME280;41295;48.518;9.206;2023-04-24T00:49:35;96223.97;;;13.35;60.67
32251;BME280;41295;48.518;9.206;2023-04-24T00:51:38;96224.72;;;13.37;60.54
32251;BME280;41295;48.518;9.206;2023-04-24T00:53:41;96225.50;;;13.52;59.45
32251;BME280;41295;48.518;9.206;2023-04-24T00:55:44;96221.22;;;13.64;59.02
32251;BME280;41295;48.518;9.206;2023-04-24T00:57:48;96217.16;;;13.45;59.63
32251;BME280;41295;48.518;9.206;2023-04-24T00:59:52;96215.63;;;13.43;59.99
32251;BME280;41295;48.518;9.206;2023-04-24T01:01:55;96217.38;;;13.42;60.18
32251;BME280;41295;48.518;9.206;2023-04-24T01:03:58;96212.34;;;13.39;60.26
32251;BME280;41295;48.518;9.206;2023-04-24T01:06:02;96212.25;;;13.41;60.28
32251;BME280;41295;48.518;9.206;2023-04-24T01:08:06;96204.28;;;13.42;60.83
32251;BME280;41295;48.518;9.206;2023-04-24T01:10:09;96199.59;;;13.34;61.24
32251;BME280;41295;48.518;9.206;2023-04-24T01:12:12;96194.13;;;13.38;61.30
32251;BME280;41295;48.518;9.206;2023-04-24T01:14:15;96202.63;;;13.41;61.14
32251;BME280;41295;48.518;9.206;2023-04-24T01:16:19;96207.34;;;13.49;60.38
32251;BME280;41295;48.518;9.206;2023-04-24T01:18:22;96208.41;;;13.46;60.48
32251;BME280;41295;48.518;9.206;2023-04-24T01:20:25;96218.41;;;13.67;60.22
32251;BME280;41295;48.518;9.206;2023-04-24T01:22:29;96225.00;;;13.73;60.47
32251;BME280;41295;48.518;9.206;2023-04-24T01:24:32;96224.31;;;13.43;61.51
32251;BME280;41295;48.518;9.206;2023-04-24T01:26:34;96214.53;;;13.32;62.24
32251;BME280;41295;48.518;9.206;2023-04-24T01:28:37;96217.50;;;13.41;62.56
32251;BME280;41295;48.518;9.206;2023-04-24T01:30:41;96205.22;;;13.28;63.01
32251;BME280;41295;48.518;9.206;2023-04-24T01:32:44;96202.91;;;13.23;63.52
32251;BME280;41295;48.518;9.206;2023-04-24T01:34:48;96193.19;;;13.26;64.53
32251;BME280;41295;48.518;9.206;2023-04-24T01:36:51;96194.31;;;13.21;65.43
32251;BME280;41295;48.518;9.206;2023-04-24T01:38:55;96187.94;;;13.26;66.06
32251;BME280;41295;48.518;9.206;2023-04-24T01:40:57;96188.13;;;13.22;66.83
32251;BME280;41295;48.518;9.206;2023-04-24T01:43:00;96182.78;;;13.11;67.13
32251;BME280;41295;48.518;9.206;2023-04-24T01:45:04;96182.88;;;13.09;67.38
32251;BME280;41295;48.518;9.206;2023-04-24T01:47:07;96183.16;;;13.05;67.80
32251;BME280;41295;48.518;9.206;2023-04-24T01:49:10;96177.28;;;13.01;67.86
32251;BME280;41295;48.518;9.206;2023-04-24T01:51:13;96174.34;;;12.93;68.23
32251;BME280;41295;48.518;9.206;2023-04-24T01:53:15;96181.34;;;12.92;68.73
32251;BME280;41295;48.518;9.206;2023-04-24T01:55:19;96186.66;;;12.91;68.70
32251;BME280;41295;48.518;9.206;2023-04-24T01:57:22;96184.16;;;12.89;69.03
32251;BME280;41295;48.518;9.206;2023-04-24T01:59:25;96185.94;;;12.89;68.77
32251;BME280;41295;48.518;9.206;2023-04-24T02:01:33;96185.28;;;12.85;68.78
32251;BME280;41295;48.518;9.206;2023-04-24T02:03:37;96189.78;;;12.83;68.74
32251;BME280;41295;48.518;9.206;2023-04-24T02:05:40;96188.75;;;12.85;68.93
32251;BME280;41295;48.518;9.206;2023-04-24T02:07:45;96192.13;;;12.87;68.97
32251;BME280;41295;48.518;9.206;2023-04-24T02:09:48;96191.59;;;12.95;69.16
32251;BME280;41295;48.518;9.206;2023-04-24T02:11:52;96196.28;;;12.90;69.03
32251;BME280;41295;48.518;9.206;2023-04-24T02:13:54;96196.91;;;12.81;69.84
32251;BME280;41295;48.518;9.206;2023-04-24T02:15:58;96196.16;;;12.79;69.92
32251;BME280;41295;48.518;9.206;2023-04-24T02:18:00;96193.81;;;12.74;70.19
32251;BME280;41295;48.518;9.206;2023-04-24T02:20:03;96200.84;;;12.73;70.42
32251;BME280;41295;48.518;9.206;2023-04-24T02:22:06;96200.09;;;12.71;70.94
32251;BME280;41295;48.518;9.206;2023-04-24T02:24:09;96201.75;;;12.72;70.57
32251;BME280;41295;48.518;9.206;2023-04-24T02:26:12;96204.28;;;12.74;70.70
32251;BME280;41295;48.518;9.206;2023-04-24T02:28:16;96204.28;;;12.74;70.91
32251;BME280;41295;48.518;9.206;2023-04-24T02:30:18;96200.19;;;12.70;70.56
32251;BME280;41295;48.518;9.206;2023-04-24T02:32:21;96197.47;;;12.71;70.76
32251;BME280;41295;48.518;9.206;2023-04-24T02:34:24;96198.22;;;12.73;71.14
32251;BME280;41295;48.518;9.206;2023-04-24T02:36:26;96197.06;;;12.78;71.17
32251;BME280;41295;48.518;9.206;2023-04-24T02:38:29;96190.94;;;12.79;71.35
32251;BME280;41295;48.518;9.206;2023-04-24T02:40:32;96186.63;;;12.78;71.68
32251;BME280;41295;48.518;9.206;2023-04-24T02:42:34;96185.91;;;12.75;71.61
32251;BME280;41295;48.518;9.206;2023-04-24T02:44:38;96188.84;;;12.84;71.42
32251;BME280;41295;48.518;9.206;2023-04-24T02:46:41;96181.31;;;12.79;71.43
32251;BME280;41295;48.518;9.206;2023-04-24T02:48:44;96184.84;;;12.78;71.34
32251;BME280;41295;48.518;9.206;2023-04-24T02:50:49;96191.13;;;12.75;71.17
32251;BME280;41295;48.518;9.206;2023-04-24T02:52:52;96195.78;;;12.70;71.59
32251;BME280;41295;48.518;9.206;2023-04-24T02:54:55;96194.13;;;12.69;71.85
32251;BME280;41295;48.518;9.206;2023-04-24T02:56:57;96193.91;;;12.72;71.22
32251;BME280;41295;48.518;9.206;2023-04-24T02:59:00;96187.41;;;12.65;71.49
32251;BME280;41295;48.518;9.206;2023-04-24T03:01:04;96191.06;;;12.62;71.65
32251;BME280;41295;48.518;9.206;2023-04-24T03:03:07;96183.59;;;12.56;71.83
32251;BME280;41295;48.518;9.206;2023-04-24T03:05:10;96184.53;;;12.55;71.90
32251;BME280;41295;48.518;9.206;2023-04-24T03:07:13;96183.69;;;12.55;71.81
32251;BME280;41295;48.518;9.206;2023-04-24T03:09:16;96190.78;;;12.53;72.06
32251;BME280;41295;48.518;9.206;2023-04-24T03:11:19;96189.03;;;12.53;72.03
32251;BME280;41295;48.518;9.206;2023-04-24T03:13:21;96195.84;;;12.56;71.69
32251;BME280;41295;48.518;9.206;2023-04-24T03:15:24;96196.66;;;12.56;71.67
32251;BME280;41295;48.518;9.206;2023-04-24T03:17:28;96207.06;;;12.58;71.77
32251;BME280;41295;48.518;9.206;2023-04-24T03:19:30;96203.50;;;12.59;71.88
32251;BME280;41295;48.518;9.206;2023-04-24T03:21:33;96200.03;;;12.58;72.01
32251;BME280;41295;48.518;9.206;2023-04-24T03:23:37;96196.50;;;12.59;71.96
32251;BME280;41295;48.518;9.206;2023-04-24T03:25:39;96194.53;;;12.63;71.94
32251;BME280;41295;48.518;9.206;2023-04-24T03:27:42;96196.75;;;12.69;71.54
32251;BME280;41295;48.518;9.206;2023-04-24T03:29:44;96193.38;;;12.67;71.90
32251;BME280;41295;48.518;9.206;2023-04-24T03:31:47;96185.09;;;12.60;72.14
32251;BME280;41295;48.518;9.206;2023-04-24T03:33:51;96175.09;;;12.53;72.34
32251;BME280;41295;48.518;9.206;2023-04-24T03:35:53;96170.81;;;12.51;72.66
32251;BME280;41295;48.518;9.206;2023-04-24T03:37:56;96181.81;;;12.57;72.90
32251;BME280;41295;48.518;9.206;2023-04-24T03:39:58;96182.03;;;12.54;72.80
32251;BME280;41295;48.518;9.206;2023-04-24T03:42:01;96179.06;;;12.45;73.20
32251;BME280;41295;48.518;9.206;2023-04-24T03:44:04;96179.97;;;12.44;73.05
32251;BME280;41295;48.518;9.206;2023-04-24T03:46:06;96164.94;;;12.48;72.83
32251;BME280;41295;48.518;9.206;2023-04-24T03:48:10;96175.19;;;12.51;72.02
32251;BME280;41295;48.518;9.206;2023-04-24T03:50:14;96171.69;;;12.37;72.41
32251;BME280;41295;48.518;9.206;2023-04-24T03:52:17;96176.28;;;12.34;72.39
32251;BME280;41295;48.518;9.206;2023-04-24T03:54:19;96176.53;;;12.44;71.80
32251;BME280;41295;48.518;9.206;2023-04-24T03:56:22;96168.03;;;12.40;71.56
32251;BME280;41295;48.518;9.206;2023-04-24T03:58:25;96170.28;;;12.32;72.16
32251;BME280;41295;48.518;9.206;2023-04-24T04:00:27;96167.88;;;12.29;72.25
32251;BME280;41295;48.518;9.206;2023-04-24T04:02:30;96168.78;;;12.42;71.65
32251;BME280;41295;48.518;9.206;2023-04-24T04:04:32;96169.38;;;12.33;72.34
32251;BME280;41295;48.518;9.206;2023-04-24T04:06:37;96160.59;;;12.34;72.06
32251;BME280;41295;48.518;9.206;2023-04-24T04:08:39;96170.09;;;12.35;72.38
32251;BME280;41295;48.518;9.206;2023-04-24T04:10:42;96168.03;;;12.40;71.86
32251;BME280;41295;48.518;9.206;2023-04-24T04:12:44;96174.31;;;12.37;71.33
32251;BME280;41295;48.518;9.206;2023-04-24T04:14:47;96188.13;;;12.25;72.15
32251;BME280;41295;48.518;9.206;2023-04-24T04:16:49;96190.84;;;12.23;72.19
32251;BME280;41295;48.518;9.206;2023-04-24T04:18:55;96197.94;;;12.21;72.25
32251;BME280;41295;48.518;9.206;2023-04-24T04:20:57;96206.06;;;12.17;72.35
32251;BME280;41295;48.518;9.206;2023-04-24T04:23:03;96201.78;;;12.15;72.63
32251;BME280;41295;48.518;9.206;2023-04-24T04:25:06;96201.97;;;12.12;72.75
32251;BME280;41295;48.518;9.206;2023-04-24T04:27:09;96204.47;;;12.14;73.35
32251;BME280;41295;48.518;9.206;2023-04-24T04:29:12;96199.16;;;12.15;73.32
32251;BME280;41295;48.518;9.206;2023-04-24T04:31:16;96205.03;;;12.19;73.27
32251;BME280;41295;48.518;9.206;2023-04-24T04:33:19;96208.41;;;12.21;73.26
32251;BME280;41295;48.518;9.206;2023-04-24T04:35:21;96209.34;;;12.20;73.54
32251;BME280;41295;48.518;9.206;2023-04-24T04:37:24;96207.44;;;12.22;73.25
32251;BME280;41295;48.518;9.206;2023-04-24T04:39:28;96212.97;;;12.18;73.27
32251;BME280;41295;48.518;9.206;2023-04-24T04:41:31;96217.44;;;12.15;73.51
32251;BME280;41295;48.518;9.206;2023-04-24T04:43:36;96214.84;;;12.15;73.39
32251;BME280;41295;48.518;9.206;2023-04-24T04:45:40;96232.94;;;12.19;73.44
32251;BME280;41295;48.518;9.206;2023-04-24T04:47:44;96247.78;;;12.18;73.48
32251;BME280;41295;48.518;9.206;2023-04-24T04:49:47;96267.84;;;12.18;73.31
32251;BME280;41295;48.518;9.206;2023-04-24T04:51:50;96282.78;;;12.15;73.20
32251;BME280;41295;48.518;9.206;2023-04-24T04:53:53;96274.75;;;12.33;72.86
32251;BME280;41295;48.518;9.206;2023-04-24T04:55:57;96274.56;;;12.36;72.14
32251;BME280;41295;48.518;9.206;2023-04-24T04:58:00;96284.00;;;12.54;70.90
32251;BME280;41295;48.518;9.206;2023-04-24T05:00:04;96285.22;;;12.48;70.68
32251;BME280;41295;48.518;9.206;2023-04-24T05:02:08;96274.56;;;12.51;70.63
32251;BME280;41295;48.518;9.206;2023-04-24T05:04:11;96274.84;;;12.32;71.81
32251;BME280;41295;48.518;9.206;2023-04-24T05:06:13;96276.44;;;12.20;71.82
32251;BME280;41295;48.518;9.206;2023-04-24T05:08:16;96286.34;;;12.14;72.65
32251;BME280;41295;48.518;9.206;2023-04-24T05:10:28;96300.44;;;12.26;71.36
32251;BME280;41295;48.518;9.206;2023-04-24T05:12:33;96299.81;;;12.07;72.15
32251;BME280;41295;48.518;9.206;2023-04-24T05:14:35;96301.72;;;12.19;70.67
32251;BME280;41295;48.518;9.206;2023-04-24T05:16:38;96299.88;;;12.21;70.85
32251;BME280;41295;48.518;9.206;2023-04-24T05:18:41;96307.25;;;12.29;70.53
32251;BME280;41295;48.518;9.206;2023-04-24T05:20:43;96302.78;;;12.17;70.34
32251;BME280;41295;48.518;9.206;2023-04-24T05:22:46;96307.34;;;12.13;70.08
32251;BME280;41295;48.518;9.206;2023-04-24T05:24:48;96312.88;;;12.07;70.27
32251;BME280;41295;48.518;9.206;2023-04-24T05:26:51;96320.34;;;11.98;68.83
32251;BME280;41295;48.518;9.206;2023-04-24T05:28:55;96328.00;;;12.01;69.67
32251;BME280;41295;48.518;9.206;2023-04-24T05:30:59;96332.38;;;12.01;69.26
32251;BME280;41295;48.518;9.206;2023-04-24T05:33:02;96348.03;;;12.01;68.95
32251;BME280;41295;48.518;9.206;2023-04-24T05:35:05;96349.06;;;11.98;68.92
32251;BME280;41295;48.518;9.206;2023-04-24T05:37:08;96364.84;;;11.97;68.57
32251;BME280;41295;48.518;9.206;2023-04-24T05:39:11;96369.25;;;11.80;69.27
32251;BME280;41295;48.518;9.206;2023-04-24T05:41:13;96365.28;;;11.89;68.24
32251;BME280;41295;48.518;9.206;2023-04-24T05:43:16;96357.28;;;11.76;68.17
32251;BME280;41295;48.518;9.206;2023-04-24T05:45:20;96351.94;;;11.63;69.64
32251;BME280;41295;48.518;9.206;2023-04-24T05:47:22;96347.34;;;11.52;70.63
32251;BME280;41295;48.518;9.206;2023-04-24T05:49:25;96352.38;;;11.55;70.81
32251;BME280;41295;48.518;9.206;2023-04-24T05:51:28;96356.06;;;11.67;70.35
32251;BME280;41295;48.518;9.206;2023-04-24T05:53:32;96368.63;;;11.60;70.03
32251;BME280;41295;48.518;9.206;2023-04-24T05:55:35;96371.50;;;11.55;70.52
32251;BME280;41295;48.518;9.206;2023-04-24T05:57:38;96377.72;;;11.53;70.94
32251;BME280;41295;48.518;9.206;2023-04-24T05:59:40;96369.09;;;11.67;69.98
32251;BME280;41295;48.518;9.206;2023-04-24T06:01:45;96376.38;;;11.62;70.28
32251;BME280;41295;48.518;9.206;2023-04-24T06:03:48;96378.84;;;11.49;70.70
32251;BME280;41295;48.518;9.206;2023-04-24T06:05:51;96377.91;;;11.50;70.72
32251;BME280;41295;48.518;9.206;2023-04-24T06:07:53;96380.06;;;11.74;68.98
32251;BME280;41295;48.518;9.206;2023-04-24T06:09:56;96378.16;;;11.61;69.04
32251;BME280;41295;48.518;9.206;2023-04-24T06:11:59;96380.56;;;11.81;68.44
32251;BME280;41295;48.518;9.206;2023-04-24T06:14:01;96380.78;;;11.76;67.38
32251;BME280;41295;48.518;9.206;2023-04-24T06:16:04;96369.44;;;11.77;67.88
32251;BME280;41295;48.518;9.206;2023-04-24T06:18:09;96377.38;;;11.59;68.64
32251;BME280;41295;48.518;9.206;2023-04-24T06:20:12;96378.38;;;11.57;68.89
32251;BME280;41295;48.518;9.206;2023-04-24T06:22:15;96381.59;;;11.62;67.78
32251;BME280;41295;48.518;9.206;2023-04-24T06:24:17;96379.06;;;11.60;67.71
32251;BME280;41295;48.518;9.206;2023-04-24T06:26:20;96375.06;;;11.85;66.58
32251;BME280;41295;48.518;9.206;2023-04-24T06:28:23;96372.56;;;11.67;67.47
32251;BME280;41295;48.518;9.206;2023-04-24T06:30:25;96371.03;;;11.79;66.91
32251;BME280;41295;48.518;9.206;2023-04-24T06:32:29;96366.16;;;11.73;66.88
32251;BME280;41295;48.518;9.206;2023-04-24T06:34:33;96363.56;;;11.57;67.34
32251;BME280;41295;48.518;9.206;2023-04-24T06:36:36;96365.91;;;11.62;67.99
32251;BME280;41295;48.518;9.206;2023-04-24T06:38:39;96367.63;;;11.63;68.08
32251;BME280;41295;48.518;9.206;2023-04-24T06:40:42;96368.81;;;11.41;68.52
32251;BME280;41295;48.518;9.206;2023-04-24T06:42:44;96380.94;;;11.42;69.37
32251;BME280;41295;48.518;9.206;2023-04-24T06:44:47;96373.44;;;11.52;68.34
32251;BME280;41295;48.518;9.206;2023-04-24T06:46:50;96373.75;;;11.62;69.65
32251;BME280;41295;48.518;9.206;2023-04-24T06:48:52;96384.63;;;11.70;66.81
32251;BME280;41295;48.518;9.206;2023-04-24T06:50:58;96372.63;;;11.82;68.17
32251;BME280;41295;48.518;9.206;2023-04-24T06:53:00;96367.31;;;11.84;68.01
32251;BME280;41295;48.518;9.206;2023-04-24T06:55:04;96363.75;;;11.85;67.80
32251;BME280;41295;48.518;9.206;2023-04-24T06:57:08;96369.13;;;11.98;66.13
32251;BME280;41295;48.518;9.206;2023-04-24T06:59:11;96370.72;;;12.00;66.57
32251;BME280;41295;48.518;9.206;2023-04-24T07:01:14;96376.78;;;12.01;66.43
32251;BME280;41295;48.518;9.206;2023-04-24T07:03:17;96376.13;;;11.97;66.60
32251;BME280;41295;48.518;9.206;2023-04-24T07:05:19;96382.56;;;11.91;67.28
32251;BME280;41295;48.518;9.206;2023-04-24T07:07:23;96383.50;;;12.21;64.08
32251;BME280;41295;48.518;9.206;2023-04-24T07:09:26;96387.91;;;12.35;63.94
32251;BME280;41295;48.518;9.206;2023-04-24T07:11:29;96386.78;;;12.25;65.06
32251;BME280;41295;48.518;9.206;2023-04-24T07:13:31;96394.63;;;12.09;65.31
32251;BME280;41295;48.518;9.206;2023-04-24T07:15:36;96382.66;;;12.05;66.07
32251;BME280;41295;48.518;9.206;2023-04-24T07:17:39;96384.50;;;12.19;67.94
32251;BME280;41295;48.518;9.206;2023-04-24T07:19:44;96390.69;;;12.18;67.51
32251;BME280;41295;48.518;9.206;2023-04-24T07:21:47;96388.09;;;12.32;65.24
32251;BME280;41295;48.518;9.206;2023-04-24T07:23:51;96386.91;;;12.53;64.44
32251;BME280;41295;48.518;9.206;2023-04-24T07:25:54;96386.72;;;12.41;65.08
32251;BME280;41295;48.518;9.206;2023-04-24T07:27:56;96399.78;;;12.41;64.37
32251;BME280;41295;48.518;9.206;2023-04-24T07:29:59;96389.41;;;12.39;62.20
32251;BME280;41295;48.518;9.206;2023-04-24T07:32:02;96402.44;;;12.56;62.08
32251;BME280;41295;48.518;9.206;2023-04-24T07:34:05;96402.13;;;12.60;61.70
32251;BME280;41295;48.518;9.206;2023-04-24T07:36:07;96404.75;;;12.60;61.20
32251;BME280;41295;48.518;9.206;2023-04-24T07:38:16;96420.81;;;12.54;61.21
32251;BME280;41295;48.518;9.206;2023-04-24T07:40:23;96425.41;;;12.50;59.39
32251;BME280;41295;48.518;9.206;2023-04-24T07:42:25;96433.69;;;12.43;59.26
32251;BME280;41295;48.518;9.206;2023-04-24T07:44:28;96437.00;;;12.30;59.72
32251;BME280;41295;48.518;9.206;2023-04-24T07:46:30;96447.28;;;12.33;61.00
32251;BME280;41295;48.518;9.206;2023-04-24T07:48:33;96437.97;;;12.44;59.05
32251;BME280;41295;48.518;9.206;2023-04-24T07:50:36;96453.94;;;12.39;58.06
32251;BME280;41295;48.518;9.206;2023-04-24T07:52:39;96455.69;;;12.38;58.86
32251;BME280;41295;48.518;9.206;2023-04-24T07:54:41;96448.78;;;12.37;57.46
32251;BME280;41295;48.518;9.206;2023-04-24T07:56:48;96449.13;;;12.31;58.04
32251;BME280;41295;48.518;9.206;2023-04-24T07:58:51;96450.34;;;12.25;58.97
32251;BME280;41295;48.518;9.206;2023-04-24T08:00:53;96461.81;;;12.54;58.22
32251;BME280;41295;48.518;9.206;2023-04-24T08:02:56;96454.31;;;12.47;57.83
32251;BME280;41295;48.518;9.206;2023-04-24T08:04:59;96471.75;;;12.63;55.98
32251;BME280;41295;48.518;9.206;2023-04-24T08:07:01;96462.00;;;12.65;54.89
32251;BME280;41295;48.518;9.206;2023-04-24T08:09:04;96475.06;;;12.50;54.32
32251;BME280;41295;48.518;9.206;2023-04-24T08:11:06;96469.13;;;12.32;56.12
32251;BME280;41295;48.518;9.206;2023-04-24T08:13:10;96465.28;;;12.23;56.51
32251;BME280;41295;48.518;9.206;2023-04-24T08:15:13;96483.78;;;12.35;56.96
32251;BME280;41295;48.518;9.206;2023-04-24T08:17:16;96488.09;;;12.36;57.50
32251;BME280;41295;48.518;9.206;2023-04-24T08:19:18;96492.56;;;12.34;56.49
32251;BME280;41295;48.518;9.206;2023-04-24T08:21:21;96490.41;;;12.10;56.25
32251;BME280;41295;48.518;9.206;2023-04-24T08:23:24;96473.31;;;12.20;54.27
32251;BME280;41295;48.518;9.206;2023-04-24T08:25:27;96487.84;;;12.24;53.92
32251;BME280;41295;48.518;9.206;2023-04-24T08:27:29;96503.88;;;12.34;54.21
32251;BME280;41295;48.518;9.206;2023-04-24T08:29:33;96503.22;;;12.31;53.25
32251;BME280;41295;48.518;9.206;2023-04-24T08:31:36;96492.59;;;12.18;53.77
32251;BME280;41295;48.518;9.206;2023-04-24T08:33:38;96505.28;;;12.09;54.60
32251;BME280;41295;48.518;9.206;2023-04-24T08:35:42;96503.03;;;12.01;54.46
32251;BME280;41295;48.518;9.206;2023-04-24T08:37:44;96506.00;;;12.11;53.75
32251;BME280;41295;48.518;9.206;2023-04-24T08:39:47;96504.47;;;12.07;54.05
32251;BME280;41295;48.518;9.206;2023-04-24T08:41:50;96500.06;;;12.24;53.33
32251;BME280;41295;48.518;9.206;2023-04-24T08:43:54;96507.44;;;12.17;53.84
32251;BME280;41295;48.518;9.206;2023-04-24T08:46:00;96499.25;;;12.07;53.89
32251;BME280;41295;48.518;9.206;2023-04-24T08:48:09;96498.75;;;12.00;52.95
32251;BME280;41295;48.518;9.206;2023-04-24T08:50:31;96498.41;;;12.07;52.89
32251;BME280;41295;48.518;9.206;2023-04-24T08:52:35;96486.94;;;12.25;52.94
32251;BME280;41295;48.518;9.206;2023-04-24T08:54:38;96495.53;;;12.27;52.45
32251;BME280;41295;48.518;9.206;2023-04-24T08:56:44;96499.16;;;12.25;52.87
32251;BME280;41295;48.518;9.206;2023-04-24T08:58:47;96500.25;;;12.05;52.90
32251;BME280;41295;48.518;9.206;2023-04-24T09:00:50;96502.28;;;12.15;52.87
32251;BME280;41295;48.518;9.206;2023-04-24T09:02:55;96517.66;;;12.22;51.13
32251;BME280;41295;48.518;9.206;2023-04-24T09:04:58;96495.13;;;12.19;50.88
32251;BME280;41295;48.518;9.206;2023-04-24T09:07:01;96496.06;;;12.18;51.42
32251;BME280;41295;48.518;9.206;2023-04-24T09:09:05;96492.75;;;12.31;52.52
32251;BME280;41295;48.518;9.206;2023-04-24T09:11:08;96501.06;;;12.37;51.06
32251;BME280;41295;48.518;9.206;2023-04-24T09:13:11;96490.13;;;12.31;52.08
32251;BME280;41295;48.518;9.206;2023-04-24T09:15:14;96494.91;;;12.38;52.70
32251;BME280;41295;48.518;9.206;2023-04-24T09:17:16;96482.88;;;12.36;51.19
32251;BME280;41295;48.518;9.206;2023-04-24T09:19:20;96487.00;;;12.55;50.12
32251;BME280;41295;48.518;9.206;2023-04-24T09:21:23;96494.19;;;12.51;49.82
32251;BME280;41295;48.518;9.206;2023-04-24T09:23:27;96502.31;;;12.46;50.67
32251;BME280;41295;48.518;9.206;2023-04-24T09:25:31;96514.00;;;12.55;49.95
32251;BME280;41295;48.518;9.206;2023-04-24T09:27:35;96500.00;;;12.56;50.53
32251;BME280;41295;48.518;9.206;2023-04-24T09:29:37;96516.53;;;12.57;49.61
32251;BME280;41295;48.518;9.206;2023-04-24T09:31:40;96537.06;;;12.48;50.35
32251;BME280;41295;48.518;9.206;2023-04-24T09:33:53;96516.72;;;12.54;50.07
32251;BME280;41295;48.518;9.206;2023-04-24T09:35:58;96518.97;;;12.60;51.73
32251;BME280;41295;48.518;9.206;2023-04-24T09:38:00;96537.84;;;12.65;51.08
32251;BME280;41295;48.518;9.206;2023-04-24T09:40:11;96524.81;;;12.49;51.48
32251;BME280;41295;48.518;9.206;2023-04-24T09:42:13;96529.28;;;12.63;51.63
32251;BME280;41295;48.518;9.206;2023-04-24T09:44:17;96526.34;;;12.53;53.08
32251;BME280;41295;48.518;9.206;2023-04-24T09:46:29;96543.41;;;12.75;51.47
32251;BME280;41295;48.518;9.206;2023-04-24T09:48:34;96545.03;;;12.61;51.11
32251;BME280;41295;48.518;9.206;2023-04-24T09:50:37;96542.84;;;12.70;51.31
32251;BME280;41295;48.518;9.206;2023-04-24T09:52:43;96539.38;;;12.69;52.09
32251;BME280;41295;48.518;9.206;2023-04-24T09:54:52;96542.94;;;12.68;52.24
32251;BME280;41295;48.518;9.206;2023-04-24T09:56:55;96542.94;;;12.68;51.76
32251;BME280;41295;48.518;9.206;2023-04-24T09:59:04;96541.41;;;12.64;52.01
32251;BME280;41295;48.518;9.206;2023-04-24T10:01:07;96542.50;;;12.60;52.24
32251;BME280;41295;48.518;9.206;2023-04-24T10:03:10;96550.88;;;12.81;52.37
32251;BME280;41295;48.518;9.206;2023-04-24T10:05:13;96554.22;;;12.69;52.52
32251;BME280;41295;48.518;9.206;2023-04-24T10:07:16;96548.72;;;12.73;52.13
32251;BME280;41295;48.518;9.206;2023-04-24T10:09:21;96543.78;;;12.53;51.67
32251;BME280;41295;48.518;9.206;2023-04-24T10:11:25;96553.66;;;12.47;50.79
32251;BME280;41295;48.518;9.206;2023-04-24T10:13:28;96545.25;;;12.42;50.68
32251;BME280;41295;48.518;9.206;2023-04-24T10:15:31;96543.81;;;12.36;50.49
32251;BME280;41295;48.518;9.206;2023-04-24T10:17:35;96550.44;;;12.58;50.77
32251;BME280;41295;48.518;9.206;2023-04-24T10:19:38;96552.44;;;12.69;49.16
32251;BME280;41295;48.518;9.206;2023-04-24T10:21:44;96547.78;;;12.74;48.40
32251;BME280;41295;48.518;9.206;2023-04-24T10:23:48;96550.19;;;12.63;49.77
32251;BME280;41295;48.518;9.206;2023-04-24T10:25:53;96552.97;;;12.60;50.70
32251;BME280;41295;48.518;9.206;2023-04-24T10:27:58;96556.16;;;12.65;50.24
32251;BME280;41295;48.518;9.206;2023-04-24T10:30:02;96553.78;;;12.77;50.01
32251;BME280;41295;48.518;9.206;2023-04-24T10:32:06;96559.72;;;12.95;49.48
32251;BME280;41295;48.518;9.206;2023-04-24T10:34:11;96550.88;;;12.81;49.32
32251;BME280;41295;48.518;9.206;2023-04-24T10:36:14;96556.53;;;12.90;49.00
32251;BME280;41295;48.518;9.206;2023-04-24T10:38:22;96553.47;;;13.12;46.58
32251;BME280;41295;48.518;9.206;2023-04-24T10:40:30;96555.69;;;12.89;46.90
32251;BME280;41295;48.518;9.206;2023-04-24T10:42:35;96562.81;;;13.02;46.36
32251;BME280;41295;48.518;9.206;2023-04-24T10:44:37;96557.28;;;13.06;46.62
32251;BME280;41295;48.518;9.206;2023-04-24T10:46:43;96565.13;;;12.92;47.20
32251;BME280;41295;48.518;9.206;2023-04-24T10:48:52;96572.41;;;13.01;47.37
32251;BME280;41295;48.518;9.206;2023-04-24T10:50:55;96575.50;;;13.08;46.74
32251;BME280;41295;48.518;9.206;2023-04-24T10:53:05;96584.69;;;13.01;46.43